Time;durP1;ratioP1;P1;durP2;ratioP2;P2;SDS_P1;SDS_P2;PMS_P1;PMS_P2;Temp;Humidity;BMP_temperature;BMP_pressure;BME280_temperature;BME280_humidity;BME280_pressure;Samples;Min_cycle;Max_cycle;Signal;HPM_P1;HPM_P2
2023/02/25 00:05:35;;;;;;;12.50;5.30;;;;;;;6.84;100.00;99274.50;20643199;28;20050;-71
2023/02/25 00:15:37;;;;;;;12.65;4.57;;;;;;;6.79;100.00;99279.78;20642055;28;20054;-71
2023/02/25 00:25:39;;;;;;;13.70;4.60;;;;;;;6.76;100.00;99287.66;20642537;28;20065;-71
2023/02/25 00:35:40;;;;;;;11.07;4.20;;;;;;;6.61;100.00;99270.59;20642226;28;20082;-71
2023/02/25 00:45:41;;;;;;;11.50;3.97;;;;;;;6.62;100.00;99253.22;20642907;28;20050;-71
2023/02/25 00:55:43;;;;;;;10.35;4.13;;;;;;;6.49;100.00;99256.94;20706856;23;20052;-79
2023/02/25 01:05:48;;;;;;;13.05;4.30;;;;;;;6.50;100.00;99272.50;20663776;28;20043;-80
2023/02/25 01:15:49;;;;;;;10.80;3.75;;;;;;;6.44;100.00;99309.00;20645925;28;20054;-78
2023/02/25 01:25:51;;;;;;;8.70;2.92;;;;;;;6.46;100.00;99324.56;20652073;28;20149;-76
2023/02/25 01:35:52;;;;;;;8.43;3.72;;;;;;;6.41;100.00;99312.50;20654234;28;20093;-76
2023/02/25 01:45:53;;;;;;;8.65;2.97;;;;;;;6.43;100.00;99321.16;20654264;28;20062;-76
2023/02/25 01:55:55;;;;;;;8.02;3.03;;;;;;;6.38;100.00;99320.38;20657139;28;20062;-74
2023/02/25 02:05:56;;;;;;;7.97;3.00;;;;;;;6.32;100.00;99322.19;20657516;28;20095;-74
2023/02/25 02:15:57;;;;;;;6.82;2.53;;;;;;;6.00;100.00;99322.69;20657029;28;20050;-74
2023/02/25 02:25:58;;;;;;;7.50;2.28;;;;;;;5.67;100.00;99330.03;20657475;28;20137;-74
2023/02/25 02:36:00;;;;;;;5.05;1.80;;;;;;;5.43;100.00;99344.19;20651038;28;20061;-75
2023/02/25 02:46:01;;;;;;;5.53;1.90;;;;;;;5.25;100.00;99363.41;20650719;28;20057;-76
2023/02/25 02:56:03;;;;;;;8.13;1.73;;;;;;;4.86;100.00;99375.06;20649017;28;20483;-75
2023/02/25 03:06:04;;;;;;;5.80;1.73;;;;;;;4.71;100.00;99375.19;20648502;28;20407;-76
2023/02/25 03:16:05;;;;;;;8.35;1.60;;;;;;;4.53;100.00;99378.78;20647262;28;20056;-76
2023/02/25 03:26:07;;;;;;;7.15;1.55;;;;;;;4.41;100.00;99369.38;20646193;28;20701;-75
2023/02/25 03:36:08;;;;;;;6.68;1.75;;;;;;;4.22;100.00;99381.59;20648261;28;20099;-76
2023/02/25 03:46:09;;;;;;;4.88;1.10;;;;;;;3.88;100.00;99388.72;20650075;28;20074;-74
2023/02/25 03:56:11;;;;;;;5.68;1.27;;;;;;;3.71;100.00;99396.53;20647503;28;20124;-76
2023/02/25 04:06:12;;;;;;;5.05;1.40;;;;;;;3.69;100.00;99402.56;20643190;28;20093;-76
2023/02/25 04:16:13;;;;;;;11.73;1.70;;;;;;;3.83;100.00;99398.19;20644468;28;20038;-76
2023/02/25 04:26:15;;;;;;;5.70;1.02;;;;;;;4.03;100.00;99405.91;20647545;28;20137;-72
2023/02/25 04:36:16;;;;;;;6.20;1.02;;;;;;;3.84;100.00;99408.56;20646799;28;20048;-73
2023/02/25 04:46:17;;;;;;;8.98;1.60;;;;;;;3.64;100.00;99425.03;20647501;28;20105;-74
2023/02/25 04:56:19;;;;;;;4.85;1.20;;;;;;;3.42;100.00;99421.66;20647989;28;20108;-76
2023/02/25 05:06:20;;;;;;;6.50;1.55;;;;;;;3.43;100.00;99426.81;20661695;28;20081;-75
2023/02/25 05:16:22;;;;;;;5.90;1.50;;;;;;;3.59;100.00;99422.47;20661961;28;20111;-75
2023/02/25 05:26:24;;;;;;;6.60;1.40;;;;;;;3.71;100.00;99425.03;20661274;28;20490;-75
2023/02/25 05:36:26;;;;;;;9.20;1.63;;;;;;;3.75;100.00;99406.03;20659162;28;20042;-73
2023/02/25 05:46:29;;;;;;;4.68;1.30;;;;;;;3.92;100.00;99392.13;20659227;28;20043;-74
2023/02/25 05:56:30;;;;;;;7.35;1.33;;;;;;;3.97;100.00;99408.50;20660392;28;20046;-75
2023/02/25 06:06:32;;;;;;;6.50;1.20;;;;;;;4.05;100.00;99436.09;20659358;28;20046;-76
2023/02/25 06:16:33;;;;;;;5.25;1.70;;;;;;;4.06;100.00;99453.34;20655432;28;20054;-75
2023/02/25 06:26:40;;;;;;;7.75;2.05;;;;;;;4.05;100.00;99449.03;20651095;28;20459;-76
2023/02/25 06:36:42;;;;;;;4.82;1.92;;;;;;;4.05;100.00;99451.63;20649375;28;20080;-76
2023/02/25 06:46:43;;;;;;;5.25;1.65;;;;;;;4.16;100.00;99464.53;20653158;28;20108;-76
2023/02/25 06:56:44;;;;;;;8.23;2.00;;;;;;;4.27;100.00;99480.91;20644319;23;20130;-79
2023/02/25 07:06:46;;;;;;;6.90;1.88;;;;;;;4.45;100.00;99492.00;20645921;28;20049;-79
2023/02/25 07:16:47;;;;;;;4.93;1.52;;;;;;;4.53;100.00;99485.06;20670361;28;20453;-79
2023/02/25 07:26:49;;;;;;;6.72;1.60;;;;;;;4.66;100.00;99489.31;20680875;28;20042;-79
2023/02/25 07:36:51;;;;;;;5.38;1.60;;;;;;;4.81;100.00;99493.53;20710955;28;20038;-80
2023/02/25 07:46:52;;;;;;;8.30;2.30;;;;;;;5.01;100.00;99486.47;20693338;28;20050;-80
2023/02/25 07:56:53;;;;;;;5.43;1.75;;;;;;;5.24;100.00;99483.66;20682059;28;20046;-80
2023/02/25 08:06:54;;;;;;;7.07;1.52;;;;;;;5.46;100.00;99486.06;20704949;28;20837;-80
2023/02/25 08:16:56;;;;;;;9.23;2.00;;;;;;;5.40;100.00;99503.41;20702470;28;20125;-80
2023/02/25 08:26:57;;;;;;;9.63;2.20;;;;;;;5.46;100.00;99504.22;20671823;28;20419;-80
2023/02/25 08:36:59;;;;;;;9.07;2.40;;;;;;;5.74;100.00;99486.63;20681200;28;20046;-80
2023/02/25 08:47:00;;;;;;;7.97;2.50;;;;;;;5.77;99.91;99481.41;20672895;28;20050;-80
2023/02/25 08:57:01;;;;;;;8.50;2.30;;;;;;;6.07;98.50;99478.50;20667598;28;20047;-80
2023/02/25 09:07:03;;;;;;;7.63;2.53;;;;;;;6.30;98.54;99488.59;20694806;28;20196;-80
2023/02/25 09:17:04;;;;;;;7.28;1.77;;;;;;;6.39;96.53;99467.69;20692478;28;20053;-80
2023/02/25 09:27:09;;;;;;;7.15;1.92;;;;;;;6.57;91.98;99465.72;20701118;28;20478;-79
2023/02/25 09:37:12;;;;;;;9.13;1.88;;;;;;;6.62;82.00;99459.56;20691270;28;20103;-79
2023/02/25 09:47:13;;;;;;;4.35;1.42;;;;;;;6.88;78.08;99456.53;20686750;28;20034;-79
2023/02/25 09:57:17;;;;;;;3.70;0.88;;;;;;;6.31;75.84;99466.91;20693240;28;20630;-78
2023/02/25 10:07:19;;;;;;;7.17;1.20;;;;;;;6.32;76.38;99473.81;20692946;28;20037;-79
2023/02/25 10:17:21;;;;;;;5.80;1.35;;;;;;;6.18;76.87;99478.38;20686967;28;20046;-78
2023/02/25 10:27:23;;;;;;;5.68;1.20;;;;;;;6.28;78.25;99469.56;20680920;28;20050;-78
2023/02/25 10:37:25;;;;;;;6.65;1.50;;;;;;;6.34;79.78;99446.09;20671977;28;20185;-78
2023/02/25 10:47:27;;;;;;;5.72;1.38;;;;;;;6.43;80.65;99456.38;20662106;28;20108;-78
2023/02/25 10:57:29;;;;;;;4.05;1.08;;;;;;;6.36;81.36;99464.25;20661695;28;20050;-78
2023/02/25 11:07:31;;;;;;;6.50;1.13;;;;;;;6.14;79.79;99461.09;20659783;28;20134;-78
2023/02/25 11:17:32;;;;;;;5.75;1.05;;;;;;;6.01;81.54;99464.72;20668949;28;20054;-78
2023/02/25 11:27:34;;;;;;;6.68;1.45;;;;;;;5.54;86.62;99484.25;20660690;28;20487;-79
2023/02/25 11:37:39;;;;;;;4.18;1.00;;;;;;;5.50;89.27;99491.19;20657617;28;20062;-79
2023/02/25 11:47:48;;;;;;;5.25;1.10;;;;;;;5.73;87.63;99459.81;20672575;28;20052;-79
2023/02/25 11:57:49;;;;;;;7.87;1.13;;;;;;;6.23;84.58;99455.78;20679522;28;20074;-79
2023/02/25 12:07:52;;;;;;;9.35;2.00;;;;;;;6.39;82.77;99452.09;20661445;28;20074;-79
2023/02/25 12:18:13;;;;;;;7.00;1.42;;;;;;;6.28;82.29;99456.56;20656549;28;20081;-79
2023/02/25 12:28:14;;;;;;;5.85;1.50;;;;;;;6.34;82.25;99456.50;20669196;28;20115;-79
2023/02/25 12:38:15;;;;;;;6.25;1.73;;;;;;;6.57;78.43;99447.50;20659036;28;20058;-79
2023/02/25 12:48:17;;;;;;;6.88;1.30;;;;;;;6.51;76.58;99439.78;20666795;28;20042;-79
2023/02/25 12:58:18;;;;;;;5.10;1.10;;;;;;;6.62;76.50;99419.69;20669019;28;20112;-79
2023/02/25 13:08:21;;;;;;;9.95;1.60;;;;;;;6.89;74.61;99424.44;20658634;28;20042;-79
2023/02/25 13:18:22;;;;;;;3.28;0.80;;;;;;;7.08;72.97;99413.72;20674346;28;20046;-79
2023/02/25 13:28:24;;;;;;;10.80;1.73;;;;;;;6.84;73.75;99407.19;20678611;28;20054;-79
2023/02/25 13:38:25;;;;;;;6.78;1.42;;;;;;;6.71;75.08;99414.34;20683920;28;20038;-79
2023/02/25 13:48:26;;;;;;;8.27;1.58;;;;;;;7.22;69.29;99398.72;20694817;28;20049;-79
2023/02/25 13:58:28;;;;;;;4.43;1.10;;;;;;;7.60;62.97;99399.72;20685439;28;20058;-79
2023/02/25 14:08:29;;;;;;;6.32;1.23;;;;;;;7.25;63.32;99393.47;20674038;28;20038;-79
2023/02/25 14:18:30;;;;;;;8.27;1.23;;;;;;;7.32;62.20;99383.78;20667339;28;20562;-79
2023/02/25 14:28:32;;;;;;;5.78;1.25;;;;;;;7.26;59.95;99384.75;20676005;28;20048;-79
2023/02/25 14:38:34;;;;;;;5.13;1.27;;;;;;;7.34;61.45;99398.50;20662319;28;20522;-79
2023/02/25 14:48:35;;;;;;;5.38;1.13;;;;;;;7.41;59.28;99394.88;20673790;28;20133;-79
2023/02/25 14:58:37;;;;;;;5.15;0.93;;;;;;;7.29;61.83;99402.06;20665971;28;20049;-79
2023/02/25 15:08:38;;;;;;;6.35;1.33;;;;;;;7.10;62.67;99419.78;20676838;28;20050;-79
2023/02/25 15:18:39;;;;;;;8.27;1.30;;;;;;;6.50;76.58;99445.88;20668317;28;20062;-79
2023/02/25 15:28:41;;;;;;;12.15;1.90;;;;;;;6.16;86.20;99448.94;20670117;28;20056;-79
2023/02/25 15:38:42;;;;;;;7.70;2.08;;;;;;;6.19;83.68;99464.50;20689645;28;20046;-79
2023/02/25 15:48:43;;;;;;;5.43;1.55;;;;;;;5.29;97.72;99483.63;20677391;28;20046;-80
2023/02/25 15:58:45;;;;;;;8.93;2.13;;;;;;;5.31;100.00;99476.69;20700170;23;20054;-75
2023/02/25 16:08:46;;;;;;;8.57;2.33;;;;;;;5.43;100.00;99499.09;20603724;28;20059;-73
2023/02/25 16:18:49;;;;;;;7.38;1.20;;;;;;;4.46;100.00;99520.53;20612401;28;20109;-72
2023/02/25 16:28:50;;;;;;;5.85;1.75;;;;;;;4.23;100.00;99543.97;20595947;28;20101;-72
2023/02/25 16:49:30;;;;;;;3.35;1.95;;;;;;;4.18;100.00;99581.97;20719966;28;20487;-80
2023/02/25 16:59:31;;;;;;;4.28;1.23;;;;;;;4.08;100.00;99591.50;20733683;28;20057;-81
2023/02/25 17:09:32;;;;;;;4.07;1.60;;;;;;;3.94;100.00;99606.22;20836905;28;20045;-80
2023/02/25 17:19:34;;;;;;;3.42;1.70;;;;;;;3.75;100.00;99628.69;20854617;28;20049;-82
2023/02/25 17:29:35;;;;;;;4.70;1.70;;;;;;;3.62;100.00;99637.31;20850154;28;20042;-81
2023/02/25 17:39:36;;;;;;;8.00;3.63;;;;;;;3.62;100.00;99667.50;20855750;28;20037;-81
2023/02/25 17:49:38;;;;;;;11.30;5.43;;;;;;;3.79;100.00;99684.78;20869546;28;20076;-82
2023/02/25 17:59:39;;;;;;;8.68;3.58;;;;;;;3.63;100.00;99700.28;20871964;28;20084;-82
2023/02/25 18:09:40;;;;;;;5.70;2.50;;;;;;;3.59;100.00;99704.59;20885384;28;20030;-82
2023/02/25 18:19:42;;;;;;;8.10;2.90;;;;;;;3.46;100.00;99718.41;20908730;28;20044;-82
2023/02/25 18:29:46;;;;;;;8.43;3.10;;;;;;;3.37;100.00;99723.53;20872279;28;20045;-82
2023/02/25 18:39:47;;;;;;;8.52;2.47;;;;;;;3.23;100.00;99729.53;20860087;28;20099;-83
2023/02/25 18:49:48;;;;;;;9.02;3.50;;;;;;;3.12;100.00;99727.78;20861035;28;20041;-82
2023/02/25 18:59:50;;;;;;;30.05;6.70;;;;;;;3.02;100.00;99747.56;20858168;28;20038;-83
2023/02/25 19:09:51;;;;;;;19.38;6.80;;;;;;;3.01;100.00;99761.34;20833789;28;20042;-83
2023/02/25 19:19:53;;;;;;;11.63;4.97;;;;;;;2.89;100.00;99771.66;20843242;28;20088;-83
2023/02/25 19:29:54;;;;;;;11.25;4.07;;;;;;;2.98;100.00;99790.66;20843295;28;20053;-82
2023/02/25 19:39:55;;;;;;;9.88;3.20;;;;;;;2.97;100.00;99796.69;20834761;28;20049;-82
2023/02/25 19:49:57;;;;;;;8.75;3.25;;;;;;;2.89;97.65;99824.22;20851291;28;20099;-82
2023/02/25 19:59:58;;;;;;;7.38;2.72;;;;;;;2.69;86.63;99833.56;20844957;28;20087;-82
2023/02/25 20:09:59;;;;;;;8.80;2.90;;;;;;;2.57;84.47;99863.63;20844161;28;20444;-82
2023/02/25 20:20:01;;;;;;;15.55;3.33;;;;;;;2.50;81.33;99881.66;20857397;28;20049;-82
2023/02/25 20:30:02;;;;;;;6.97;2.47;;;;;;;2.41;77.86;99894.50;20845527;28;20041;-82
2023/02/25 20:40:09;;;;;;;9.48;1.67;;;;;;;2.19;75.49;99886.53;20848551;28;20042;-83
2023/02/25 20:50:10;;;;;;;6.43;2.10;;;;;;;2.02;73.96;99898.44;20855769;28;20045;-83
2023/02/25 21:00:12;;;;;;;5.88;1.98;;;;;;;1.82;71.73;99905.06;20854795;28;20129;-83
2023/02/25 21:10:16;;;;;;;8.45;2.63;;;;;;;1.62;72.54;99903.09;20849538;28;20076;-82
2023/02/25 21:20:17;;;;;;;6.68;2.38;;;;;;;1.50;72.16;99916.72;20843961;28;20465;-82
2023/02/25 21:30:18;;;;;;;9.68;2.53;;;;;;;1.36;73.87;99914.81;20847850;28;20084;-82
2023/02/25 21:40:20;;;;;;;7.22;2.70;;;;;;;1.19;74.46;99932.63;20852722;28;20045;-82
2023/02/25 21:50:21;;;;;;;24.63;10.38;;;;;;;1.00;75.87;99934.06;20851362;28;20041;-82
2023/02/25 22:00:23;;;;;;;10.40;3.17;;;;;;;0.98;74.91;99956.38;20857740;28;20399;-82
2023/02/25 22:10:24;;;;;;;7.15;2.67;;;;;;;0.87;76.88;99953.63;20916820;28;20045;-83
2023/02/25 22:20:25;;;;;;;9.55;2.90;;;;;;;0.76;78.73;99952.56;20864606;28;20050;-83
2023/02/25 22:30:26;;;;;;;6.95;2.20;;;;;;;0.56;79.64;99957.41;20869907;28;20053;-85
2023/02/25 22:40:28;;;;;;;8.73;2.70;;;;;;;0.46;81.47;99966.66;20869796;28;20485;-84
2023/02/25 22:50:29;;;;;;;7.32;2.80;;;;;;;0.35;82.79;99972.47;20861526;28;20042;-84
2023/02/25 23:00:31;;;;;;;10.25;3.53;;;;;;;0.18;84.61;99983.31;20863343;28;20071;-84
2023/02/25 23:10:34;;;;;;;10.77;3.88;;;;;;;0.04;86.99;99989.88;20868907;28;20045;-84
2023/02/25 23:20:36;;;;;;;7.25;3.33;;;;;;;-0.07;88.17;99996.53;20864209;28;20049;-84
2023/02/25 23:30:37;;;;;;;8.32;3.28;;;;;;;-0.19;89.19;99996.25;20860880;28;20071;-84
2023/02/25 23:40:39;;;;;;;9.48;2.38;;;;;;;-0.32;90.52;100011.47;20863419;28;20561;-83
2023/02/25 23:50:40;;;;;;;7.65;2.72;;;;;;;-0.43;91.18;100005.22;20864943;28;20076;-83
